14 de agosto de 2022

Hora Código Clima Temp. Visibilidade Tecto Vento METAR/SPECI
01:50
V
24 °C 10 km+ 14.000 ft 090° 090° 6 kt METAR EDHI 132350Z AUTO 09006KT 050V120 9999 // BKN140/// OVC180/// 24/14 Q1015
01:20
V
24 °C 10 km+ 14.000 ft 080° 080° 8 kt METAR EDHI 132320Z AUTO 08008KT 060V120 9999 // OVC140/// 24/14 Q1015
00:50
V
25 °C 10 km+ 14.000 ft 080° 080° 8 kt METAR EDHI 132250Z AUTO 08008KT 040V110 9999 // OVC140/// 25/14 Q1016
00:20
V
25 °C 10 km+ 14.000 ft 080° 080° 6 kt METAR EDHI 132220Z AUTO 08006KT 9999 // BKN140/// 25/14 Q1016

13 de agosto de 2022

Hora Código Clima Temp. Visibilidade Tecto Vento METAR/SPECI
23:50
V
25 °C 10 km+ 14.000 ft 080° 080° 9 kt METAR EDHI 132150Z AUTO 08009KT 060V120 9999 // BKN140/// 25/14 Q1016
23:20
V
25 °C 10 km+ - 080° 080° 8 kt METAR EDHI 132120Z AUTO 08008KT 050V120 9999 // FEW067/// SCT140/// 25/15 Q1016
22:50
V
24 °C 10 km+ - 070° 070° 7 kt METAR EDHI 132050Z AUTO 07007KT 040V100 9999 // SCT140/// 24/15 Q1016
22:20
V
25 °C 10 km+ - 060° 060° 8 kt METAR EDHI 132020Z AUTO 06008KT 9999 // SCT110/// 25/14 Q1016
21:50
V
25 °C 10 km+ 11.000 ft 050° 050° 8 kt METAR EDHI 131950Z AUTO 05008KT 9999 // BKN110/// BKN130/// 25/14 Q1016
21:20
V
26 °C 10 km+ 11.000 ft 070° 070° 9 kt METAR EDHI 131920Z AUTO 07009KT 9999 // BKN110/// BKN130/// 26/14 Q1016
20:50
V
26 °C 10 km+ - 050° 050° 9 kt METAR EDHI 131850Z AUTO 05009KT 9999 // FEW110/// 26/14 Q1016
20:20
V
27 °C 10 km+ 11.000 ft 070° 070° 9 kt METAR EDHI 131820Z AUTO 07009KT 030V090 9999 // BKN110/// 27/14 Q1016
19:50
V
28 °C 10 km+ 12.000 ft 060° 060° 11 kt METAR EDHI 131750Z AUTO 06011KT 9999 // FEW100/// BKN120/// 28/14 Q1016
19:20
V
29 °C 10 km+ 11.000 ft 060° 060° 9 kt METAR EDHI 131720Z AUTO 06009KT 030V090 9999 // BKN110/// 29/14 Q1016
18:50
V
29 °C 10 km+ 12.000 ft 100° 100° 3 kt METAR EDHI 131650Z AUTO 10003KT 050V180 9999 // FEW067/// BKN120/// 29/14 Q1016
18:20
V
29 °C 10 km+ 12.000 ft Var Var 3 kt METAR EDHI 131620Z AUTO VRB03KT 9999 // FEW066/// SCT089/// BKN120/// 29/14 Q1016
17:50
V
29 °C 10 km+ 9.000 ft 100° 100° 5 kt METAR EDHI 131550Z AUTO 10005KT 040V150 9999 // SCT067/// BKN090/// BKN110/// 29/14 Q1016
17:20
V
30 °C 10 km+ 9.700 ft 090° 090° 7 kt METAR EDHI 131520Z AUTO 09007KT 060V150 9999 // SCT068/// BKN097/// BKN110/// 30/14 Q1017
16:50
V
30 °C 10 km+ - Var Var 5 kt METAR EDHI 131450Z AUTO VRB05KT 9999 // FEW069/// 30/14 Q1017
16:20
V
30 °C 10 km+ 10.000 ft 080° 080° 8 kt METAR EDHI 131420Z AUTO 08008KT 040V110 9999 // FEW066/// BKN100/// 30/13 Q1017
15:50
V
30 °C 10 km+ 10.000 ft 090° 090° 7 kt METAR EDHI 131350Z AUTO 09007KT 060V130 9999 // FEW068/// BKN100/// 30/13 Q1017
15:20
V
29 °C 10 km+ 7.300 ft 090° 090° 7 kt METAR EDHI 131320Z AUTO 09007KT 060V150 9999 // BKN073/// 29/13 Q1017
14:50
V
30 °C 10 km+ - 090° 090° 8 kt METAR EDHI 131250Z AUTO 09008KT 060V170 9999 // FEW073/// SCT088/// 30/12 Q1017
14:20
V
30 °C 10 km+ - 080° 080° 8 kt METAR EDHI 131220Z AUTO 08008KT 040V140 9999 // FEW074/// 30/12 Q1018
13:50
V
31 °C 10 km+ - 110° 110° 8 kt METAR EDHI 131150Z AUTO 11008KT 050V220 9999 // FEW073/// 31/12 Q1018
13:20
V
31 °C 10 km+ - 090° 090° 6 kt METAR EDHI 131120Z AUTO 09006KT 030V200 9999 // FEW073/// 31/12 Q1018
12:50
V
30 °C 10 km+ - Var Var 6 kt METAR EDHI 131050Z AUTO VRB06KT 9999 // NCD 30/11 Q1018
12:20
V
29 °C 10 km+ - 070° 070° 8 kt METAR EDHI 131020Z AUTO 07008KT 030V120 9999 // NCD 29/11 Q1019
11:50
V
29 °C 10 km+ - 090° 090° 6 kt METAR EDHI 130950Z AUTO 09006KT 030V150 9999 // NCD 29/11 Q1019
11:20
V
28 °C 10 km+ - 080° 080° 6 kt METAR EDHI 130920Z AUTO 08006KT 040V140 9999 // NCD 28/11 Q1019
10:50
V
28 °C 10 km+ - 070° 070° 5 kt METAR EDHI 130850Z AUTO 07005KT 020V150 9999 // NCD 28/12 Q1019
10:20
V
27 °C 10 km+ - Var Var 3 kt METAR EDHI 130820Z AUTO VRB03KT 9999 // NCD 27/13 Q1019
09:50
V
25 °C 10 km+ - 060° 060° 3 kt METAR EDHI 130750Z AUTO 06003KT 320V130 9999 // NCD 25/12 Q1019
09:20
V
25 °C 10 km+ - 090° 090° 3 kt METAR EDHI 130720Z AUTO 09003KT 030V170 9999 // NCD 25/13 Q1019
08:50
V
24 °C 10 km+ - 110° 110° 4 kt METAR EDHI 130650Z AUTO 11004KT 080V140 9999 // NCD 24/13 Q1019
08:20
V
22 °C 10 km+ - 090° 090° 4 kt METAR EDHI 130620Z AUTO 09004KT 050V140 9999 // NCD 22/12 Q1019
07:50
V
21 °C 10 km+ - 090° 090° 4 kt METAR EDHI 130550Z AUTO 09004KT 060V120 9999 // NCD 21/12 Q1019
07:20
V
20 °C 10 km+ - 080° 080° 3 kt METAR EDHI 130520Z AUTO 08003KT 9999 // NCD 20/13 Q1019
06:50
V
19 °C 10 km+ - 090° 090° 3 kt METAR EDHI 130450Z AUTO 09003KT 9999 // NCD 19/12 Q1019
06:20
V
19 °C 10 km+ - 090° 090° 4 kt METAR EDHI 130420Z AUTO 09004KT 9999 // NCD 19/12 Q1019
05:50
V
19 °C 10 km+ - 090° 090° 4 kt METAR EDHI 130350Z AUTO 09004KT 9999 // NCD 19/12 Q1019
05:20
V
19 °C 10 km+ - 090° 090° 4 kt METAR EDHI 130320Z AUTO 09004KT 9999 // NCD 19/12 Q1019
04:50
V
20 °C 10 km+ - 100° 100° 3 kt METAR EDHI 130250Z AUTO 10003KT 050V140 9999 // NCD 20/12 Q1019
04:20
V
20 °C 10 km+ - 090° 090° 4 kt METAR EDHI 130220Z AUTO 09004KT 060V130 9999 // NCD 20/12 Q1019
03:50
V
20 °C 10 km+ - 090° 090° 3 kt METAR EDHI 130150Z AUTO 09003KT 060V130 9999 // NCD 20/13 Q1019
03:20
V
19 °C 10 km+ - 100° 100° 3 kt METAR EDHI 130120Z AUTO 10003KT 050V170 9999 // NCD 19/13 Q1019
02:50
V
19 °C 10 km+ - 090° 090° 3 kt METAR EDHI 130050Z AUTO 09003KT 9999 // NCD 19/14 Q1019
02:20
V
19 °C 10 km+ - 080° 080° 3 kt METAR EDHI 130020Z AUTO 08003KT 9999 // NCD 19/14 Q1019
01:50
V
20 °C 10 km+ - 080° 080° 3 kt METAR EDHI 122350Z AUTO 08003KT 9999 // NCD 20/15 Q1019
01:20
V
20 °C 10 km+ - Var Var 2 kt METAR EDHI 122320Z AUTO VRB02KT 9999 // NCD 20/13 Q1019
00:50
V
20 °C 10 km+ - Var Var 2 kt METAR EDHI 122250Z AUTO VRB02KT 9999 // NCD 20/13 Q1019
00:20
V
21 °C 10 km+ - 090° 090° 3 kt METAR EDHI 122220Z AUTO 09003KT 9999 // NCD 21/13 Q1019

12 de agosto de 2022

Hora Código Clima Temp. Visibilidade Tecto Vento METAR/SPECI
23:50
V
22 °C 10 km+ - 070° 070° 3 kt METAR EDHI 122150Z AUTO 07003KT 9999 // NCD 22/13 Q1019
23:20
V
22 °C 10 km+ - 080° 080° 4 kt METAR EDHI 122120Z AUTO 08004KT 050V110 9999 // NCD 22/13 Q1019
22:50
V
23 °C 10 km+ - 070° 070° 7 kt METAR EDHI 122050Z AUTO 07007KT 9999 // NCD 23/13 Q1019
22:20
V
23 °C 10 km+ - 070° 070° 6 kt METAR EDHI 122020Z AUTO 07006KT 9999 // NCD 23/13 Q1019
21:50
V
25 °C 10 km+ - 060° 060° 6 kt METAR EDHI 121950Z AUTO 06006KT 9999 // NCD 25/13 Q1019
21:20
V
25 °C 10 km+ - 060° 060° 7 kt METAR EDHI 121920Z AUTO 06007KT 9999 // NCD 25/13 Q1019
20:50
V
26 °C 10 km+ - 060° 060° 8 kt METAR EDHI 121850Z AUTO 06008KT 9999 // NCD 26/13 Q1019
20:20
V
27 °C 10 km+ - 070° 070° 10 kt METAR EDHI 121820Z AUTO 07010KT 9999 // NCD 27/12 Q1019
19:50
V
28 °C 10 km+ - 070° 070° 9 kt METAR EDHI 121750Z AUTO 07009KT 9999 // NCD 28/12 Q1019
18:50
V
30 °C 10 km+ - Var Var 4 kt METAR EDHI 121650Z VRB04KT CAVOK 30/08 Q1019
18:20
V
30 °C 10 km+ - 150° 150° 5 kt METAR EDHI 121620Z 15005KT 060V220 CAVOK 30/07 Q1019
17:50
V
31 °C 10 km+ - Var Var 5 kt METAR EDHI 121550Z VRB05KT CAVOK 31/06 Q1019
17:20
V
31 °C 10 km+ - 110° 110° 4 kt METAR EDHI 121520Z 11004KT 050V200 CAVOK 31/07 Q1019
16:50
V
30 °C 10 km+ - Var Var 5 kt METAR EDHI 121450Z VRB05KT CAVOK 30/08 Q1019
16:20
V
31 °C 10 km+ - Var Var 5 kt METAR EDHI 121420Z VRB05KT CAVOK 31/09 Q1019
15:50
V
31 °C 10 km+ - Var Var 4 kt METAR EDHI 121350Z VRB04KT CAVOK 31/09 Q1020
15:20
V
31 °C 10 km+ - Var Var 6 kt METAR EDHI 121320Z VRB06KT CAVOK 31/08 Q1020
14:50
V
30 °C 10 km+ - 080° 080° 8 kt METAR EDHI 121250Z 08008KT 360V140 CAVOK 30/08 Q1020
14:20
V
30 °C 10 km+ - Var Var 5 kt METAR EDHI 121220Z VRB05KT CAVOK 30/08 Q1020
13:50
V
30 °C 10 km+ - 100° 100° 5 kt METAR EDHI 121150Z 10005KT 030V180 CAVOK 30/09 Q1020
13:20
V
29 °C 10 km+ - 090° 090° 5 kt METAR EDHI 121120Z 09005KT 040V180 CAVOK 29/09 Q1021
12:50
V
28 °C 10 km+ - 090° 090° 6 kt METAR EDHI 121050Z 09006KT 030V190 CAVOK 28/11 Q1021
12:20
V
28 °C 10 km+ - Var Var 5 kt METAR EDHI 121020Z VRB05KT CAVOK 28/12 Q1021
11:50
V
27 °C 10 km+ - 100° 100° 5 kt METAR EDHI 120950Z 10005KT 020V170 CAVOK 27/11 Q1021
11:20
V
26 °C 10 km+ - 070° 070° 6 kt METAR EDHI 120920Z 07006KT 040V100 CAVOK 26/12 Q1022
10:50
V
25 °C 10 km+ - 070° 070° 6 kt METAR EDHI 120850Z 07006KT 020V120 CAVOK 25/12 Q1022
10:20
V
24 °C 10 km+ - 100° 100° 4 kt METAR EDHI 120820Z 10004KT 010V160 CAVOK 24/13 Q1022
09:50
V
23 °C 10 km+ - 100° 100° 4 kt METAR EDHI 120750Z 10004KT 050V180 CAVOK 23/13 Q1022
09:20
V
22 °C 10 km+ - 100° 100° 5 kt METAR EDHI 120720Z 10005KT 050V200 CAVOK 22/12 Q1022
08:50
V
21 °C 10 km+ - 090° 090° 5 kt METAR EDHI 120650Z 09005KT 050V160 CAVOK 21/12 Q1022
08:20
V
21 °C 10 km+ - 100° 100° 4 kt METAR EDHI 120620Z 10004KT 040V140 CAVOK 21/12 Q1021
07:50
V
20 °C 10 km+ - 090° 090° 3 kt METAR EDHI 120550Z 09003KT 040V130 CAVOK 20/12 Q1021
07:20
V
19 °C 10 km+ - 090° 090° 3 kt METAR EDHI 120520Z 09003KT 050V140 CAVOK 19/13 Q1021
06:50
V
18 °C 10 km+ - 100° 100° 3 kt METAR EDHI 120450Z 10003KT 070V130 CAVOK 18/13 Q1021
06:20
V
17 °C 10 km+ - 090° 090° 3 kt METAR EDHI 120420Z 09003KT 060V120 CAVOK 17/12 Q1021
05:50
V
17 °C 10 km+ - 090° 090° 3 kt METAR EDHI 120350Z AUTO 09003KT 040V150 9999 // NCD 17/12 Q1021
05:20
V
17 °C 10 km+ - 080° 080° 4 kt METAR EDHI 120320Z AUTO 08004KT 060V120 9999 // NCD 17/12 Q1021
04:50
V
18 °C 10 km+ - 080° 080° 4 kt METAR EDHI 120250Z AUTO 08004KT 9999 // NCD 18/12 Q1022
04:20
V
19 °C 10 km+ - 100° 100° 3 kt METAR EDHI 120220Z AUTO 10003KT 030V170 9999 // NCD 19/11 Q1022
03:50
V
20 °C 10 km+ - 090° 090° 4 kt METAR EDHI 120150Z AUTO 09004KT 060V120 9999 // NCD 20/11 Q1022
03:20
V
20 °C 10 km+ - 090° 090° 5 kt METAR EDHI 120120Z AUTO 09005KT 060V120 9999 // NCD 20/11 Q1022
02:50
V
19 °C 10 km+ - 090° 090° 3 kt METAR EDHI 120050Z AUTO 09003KT 050V130 9999 // NCD 19/12 Q1022
02:20
V
19 °C 10 km+ - 080° 080° 5 kt METAR EDHI 120020Z AUTO 08005KT 9999 // NCD 19/12 Q1022
01:50
V
19 °C 10 km+ - 080° 080° 5 kt METAR EDHI 112350Z AUTO 08005KT 9999 // NCD 19/13 Q1022
01:20
V
21 °C 10 km+ - 080° 080° 5 kt METAR EDHI 112320Z AUTO 08005KT 040V130 9999 // NCD 21/12 Q1022
00:50
V
21 °C 10 km+ - 080° 080° 6 kt METAR EDHI 112250Z AUTO 08006KT 9999 // NCD 21/12 Q1022
00:20
V
20 °C 10 km+ - 070° 070° 5 kt METAR EDHI 112220Z AUTO 07005KT 9999 // NCD 20/12 Q1022

11 de agosto de 2022

Hora Código Clima Temp. Visibilidade Tecto Vento METAR/SPECI
23:50
V
21 °C 10 km+ - 070° 070° 5 kt METAR EDHI 112150Z AUTO 07005KT 9999 // NCD 21/11 Q1022
23:20
V
21 °C 10 km+ - 070° 070° 5 kt METAR EDHI 112120Z AUTO 07005KT 9999 // NCD 21/12 Q1022
22:50
V
22 °C 10 km+ - 070° 070° 6 kt METAR EDHI 112050Z AUTO 07006KT 9999 // NCD 22/11 Q1022
22:20
V
22 °C 10 km+ - 080° 080° 7 kt METAR EDHI 112020Z AUTO 08007KT 9999 // NCD 22/10 Q1022
21:50
V
23 °C 10 km+ - 070° 070° 7 kt METAR EDHI 111950Z AUTO 07007KT 9999 // NCD 23/11 Q1022
21:20
V
24 °C 10 km+ - 060° 060° 7 kt METAR EDHI 111920Z AUTO 06007KT 9999 // NCD 24/11 Q1022
20:50
V
25 °C 10 km+ - 070° 070° 6 kt METAR EDHI 111850Z AUTO 07006KT 9999 // NCD 25/10 Q1021
20:20
V
26 °C 10 km+ - 070° 070° 8 kt METAR EDHI 111820Z AUTO 07008KT 9999 // NCD 26/11 Q1021
19:50
V
27 °C 10 km+ - 060° 060° 9 kt METAR EDHI 111750Z 06009KT CAVOK 27/11 Q1021
19:20
V
28 °C 10 km+ - 060° 060° 8 kt METAR EDHI 111720Z 06008KT CAVOK 28/11 Q1021
18:50
V
29 °C 10 km+ - 050° 050° 10 kt METAR EDHI 111650Z 05010KT 020V090 CAVOK 29/11 Q1021
18:20
V
29 °C 10 km+ - 060° 060° 8 kt METAR EDHI 111620Z 06008KT 010V160 CAVOK 29/11 Q1021
17:50
V
30 °C 10 km+ - Var Var 4 kt METAR EDHI 111550Z VRB04KT CAVOK 30/10 Q1021
17:20
V
30 °C 10 km+ - Var Var 4 kt METAR EDHI 111520Z VRB04KT CAVOK 30/09 Q1022
16:50
V
30 °C 10 km+ - 080° 080° 8 kt METAR EDHI 111450Z 08008KT 030V120 CAVOK 30/09 Q1022
Dados mais antigos

Nós e terceiros acompanhamos seu comportamento na internet em nosso site com cookies. Se você continuar, nós assumimos que você concorda com nossa política de cookies. Saiba mais